Time;durP1;ratioP1;P1;durP2;ratioP2;P2;SDS_P1;SDS_P2;PMS_P1;PMS_P2;Temp;Humidity;BMP_temperature;BMP_pressure;BME280_temperature;BME280_humidity;BME280_pressure;Samples;Min_cycle;Max_cycle;Signal;HPM_P1;HPM_P2
2023/05/25 00:11:18;;;;;;;7.23;5.40;;;17.00;99.90;;;17.31;65.39;94926.19;5076708;28;20813;-62
2023/05/25 00:13:46;;;;;;;6.77;6.07;;;17.00;99.90;;;17.28;64.91;94931.88;5076359;28;20449;-55
2023/05/25 00:16:14;;;;;;;17.53;7.43;;;17.00;99.90;;;17.26;64.93;94929.38;5074653;28;20536;-61
2023/05/25 00:18:42;;;;;;;8.87;5.70;;;16.90;99.90;;;17.25;64.98;94924.25;5072546;28;20454;-61
2023/05/25 00:21:09;;;;;;;6.40;5.90;;;16.90;99.90;;;17.24;65.07;94930.56;5075506;28;21491;-55
2023/05/25 00:23:36;;;;;;;10.17;6.23;;;16.90;99.90;;;17.22;64.86;94927.28;5075163;28;20450;-56
2023/05/25 00:26:04;;;;;;;18.43;6.40;;;16.90;99.90;;;17.20;65.38;94933.59;5077250;28;20572;-56
2023/05/25 00:28:31;;;;;;;11.07;6.20;;;16.90;99.90;;;17.20;65.07;94928.25;5074254;28;20517;-60
2023/05/25 00:30:59;;;;;;;8.20;6.03;;;16.90;99.90;;;17.16;65.36;94924.31;5074821;28;20461;-56
2023/05/25 00:33:27;;;;;;;7.77;6.00;;;16.90;99.90;;;17.14;65.03;94926.31;5074583;28;20442;-62
2023/05/25 00:35:55;;;;;;;9.73;7.40;;;16.80;99.90;;;17.11;65.27;94932.00;5075066;28;20439;-62
2023/05/25 00:38:23;;;;;;;8.57;7.37;;;16.80;99.90;;;17.09;65.29;94935.84;5076099;28;20519;-57
2023/05/25 00:40:54;;;;;;;11.17;7.10;;;16.80;99.90;;;17.05;65.66;94927.41;5072490;28;20450;-61
2023/05/25 00:43:21;;;;;;;8.50;7.67;;;16.80;99.90;;;17.04;65.63;94933.72;5078842;28;20523;-62
2023/05/25 00:45:49;;;;;;;14.63;7.80;;;16.70;99.90;;;17.02;65.43;94930.41;5073577;28;20867;-60
2023/05/25 00:48:18;;;;;;;11.37;7.73;;;16.70;99.90;;;17.02;65.92;94933.06;5077520;28;20508;-60
2023/05/25 00:50:46;;;;;;;11.17;8.67;;;16.70;99.90;;;17.00;65.87;94933.25;5072202;28;20462;-61
2023/05/25 00:53:13;;;;;;;11.73;8.07;;;16.70;99.90;;;16.99;65.95;94939.59;5077103;28;20862;-62
2023/05/25 00:55:50;;;;;;;10.80;7.60;;;16.70;99.90;;;16.99;65.74;94938.72;5073952;28;21036;-55
2023/05/25 00:58:18;;;;;;;17.13;7.80;;;16.60;99.90;;;16.98;65.94;94937.91;5075104;28;20458;-61
2023/05/25 01:00:45;;;;;;;10.43;7.40;;;16.70;99.90;;;16.97;65.82;94935.44;5067859;28;20455;-57
2023/05/25 01:03:16;;;;;;;11.70;7.30;;;16.70;99.90;;;16.94;65.81;94935.78;5070940;28;20462;-60
2023/05/25 01:05:47;;;;;;;7.97;6.83;;;16.60;99.90;;;16.91;65.71;94942.28;5068257;28;20463;-60
2023/05/25 01:08:14;;;;;;;8.13;6.67;;;16.60;99.90;;;16.90;65.63;94950.44;5054601;28;22667;-55
2023/05/25 01:10:42;;;;;;;8.63;7.00;;;16.60;99.90;;;16.89;65.88;94948.78;5070989;28;20487;-55
2023/05/25 01:13:09;;;;;;;8.30;6.10;;;16.60;99.90;;;16.88;65.87;94953.25;5067742;28;20478;-54
2023/05/25 01:15:38;;;;;;;8.70;6.50;;;16.60;99.90;;;16.84;65.48;94944.78;5071130;28;20455;-56
2023/05/25 01:18:05;;;;;;;6.67;5.97;;;16.50;99.90;;;16.79;65.41;94948.97;5071882;28;20486;-59
2023/05/25 01:20:33;;;;;;;12.63;6.60;;;16.50;99.90;;;16.76;65.97;94950.16;5072308;28;20451;-55
2023/05/25 01:23:06;;;;;;;24.37;6.83;;;16.40;99.90;;;16.76;66.15;94946.66;5076742;28;20528;-56
2023/05/25 01:25:38;;;;;;;6.00;5.40;;;16.40;99.90;;;16.74;65.93;94938.06;5075364;28;20466;-55
2023/05/25 01:28:07;;;;;;;10.43;6.63;;;16.40;99.90;;;16.72;65.56;94932.91;5071635;28;20494;-56
2023/05/25 01:30:34;;;;;;;8.57;6.37;;;16.40;99.90;;;16.71;65.98;94933.91;5070549;28;20536;-60
2023/05/25 01:33:02;;;;;;;8.40;6.63;;;16.40;99.90;;;16.70;66.06;94936.75;5074943;28;20832;-61
2023/05/25 01:35:29;;;;;;;6.40;5.70;;;16.40;99.90;;;16.68;66.06;94939.56;5069941;28;20466;-61
2023/05/25 01:37:56;;;;;;;8.07;5.90;;;16.30;99.90;;;16.64;65.85;94925.03;5072379;28;20475;-56
2023/05/25 01:40:25;;;;;;;8.33;6.40;;;16.30;99.90;;;16.63;65.99;94926.00;5071002;28;21052;-56
2023/05/25 01:42:52;;;;;;;9.03;5.70;;;16.30;99.90;;;16.60;65.93;94921.88;5070710;28;20564;-55
2023/05/25 01:45:19;;;;;;;7.63;5.40;;;16.30;99.90;;;16.59;65.90;94927.34;5075373;28;20466;-55
2023/05/25 01:47:50;;;;;;;11.80;6.20;;;16.30;99.90;;;16.58;65.93;94923.06;5070504;28;20502;-55
2023/05/25 01:50:26;;;;;;;9.10;6.70;;;16.30;99.90;;;16.55;65.98;94916.25;5073019;28;20450;-56
2023/05/25 01:52:57;;;;;;;7.03;5.80;;;16.20;99.90;;;16.54;66.05;94921.75;5071338;28;21064;-61
2023/05/25 01:55:27;;;;;;;12.30;6.73;;;16.20;99.90;;;16.52;66.25;94921.94;5074836;28;20459;-60
2023/05/25 01:57:56;;;;;;;7.97;5.73;;;16.20;99.90;;;16.51;66.18;94920.25;5072121;28;20474;-61
2023/05/25 02:00:24;;;;;;;10.93;6.30;;;16.20;99.90;;;16.49;66.38;94928.41;5071220;28;20483;-62
2023/05/25 02:02:51;;;;;;;5.83;5.23;;;16.20;99.90;;;16.47;66.23;94927.75;5072793;28;20470;-55
2023/05/25 02:05:19;;;;;;;12.47;5.73;;;16.20;99.90;;;16.45;66.04;94928.94;5069985;28;20455;-61
2023/05/25 02:07:46;;;;;;;8.87;6.70;;;16.20;99.90;;;16.43;66.05;94933.59;5075038;28;20999;-56
2023/05/25 02:10:14;;;;;;;12.63;6.07;;;16.10;99.90;;;16.39;66.08;94935.78;5074679;28;20536;-60
2023/05/25 02:12:42;;;;;;;9.60;5.50;;;16.10;99.90;;;16.35;65.87;94926.50;5073846;28;20474;-60
2023/05/25 02:15:11;;;;;;;6.03;5.27;;;16.10;99.90;;;16.33;65.71;94943.59;5067232;28;20499;-61
2023/05/25 02:17:38;;;;;;;15.10;5.10;;;16.00;99.90;;;16.28;65.88;94931.69;5076556;28;20535;-61
2023/05/25 02:20:07;;;;;;;6.70;5.57;;;16.00;99.90;;;16.24;65.92;94942.81;5069989;28;20612;-61
2023/05/25 02:22:36;;;;;;;9.23;4.87;;;16.00;99.90;;;16.22;65.93;94942.16;5072983;28;20494;-60
2023/05/25 02:25:04;;;;;;;8.73;5.80;;;15.90;99.90;;;16.17;65.73;94941.84;5071951;28;20454;-60
2023/05/25 02:27:31;;;;;;;7.30;6.27;;;15.90;99.90;;;16.14;65.98;94945.66;5073488;28;20492;-60
2023/05/25 02:30:00;;;;;;;6.43;5.23;;;15.90;99.90;;;16.10;65.98;94947.03;5073378;28;20447;-55
2023/05/25 02:32:28;;;;;;;6.93;4.97;;;15.80;99.90;;;16.06;66.00;94948.34;5069541;28;20475;-61
2023/05/25 02:34:55;;;;;;;9.93;6.10;;;15.80;99.90;;;16.03;66.20;94949.50;5077830;28;20450;-55
2023/05/25 02:37:22;;;;;;;7.03;6.00;;;15.80;99.90;;;16.00;66.50;94949.03;5072672;28;20475;-56
2023/05/25 02:39:49;;;;;;;6.03;5.50;;;15.70;99.90;;;15.98;66.24;94951.06;5074378;28;20516;-61
2023/05/25 02:42:17;;;;;;;8.37;4.53;;;15.70;99.90;;;15.94;66.58;94961.16;5071304;28;20571;-56
2023/05/25 02:44:47;;;;;;;5.70;5.10;;;15.70;99.90;;;15.91;66.46;94964.16;5072773;28;20457;-61
2023/05/25 02:47:16;;;;;;;24.17;7.67;;;15.70;99.90;;;15.87;66.56;94965.50;5075090;28;20531;-55
2023/05/25 02:49:44;;;;;;;15.70;7.60;;;15.60;99.90;;;15.84;66.68;94971.16;5076337;28;20954;-55
2023/05/25 02:52:11;;;;;;;14.30;6.30;;;15.60;99.90;;;15.81;66.81;94977.59;5068785;28;20483;-55
2023/05/25 02:54:39;;;;;;;10.77;6.90;;;15.50;99.90;;;15.81;67.22;94979.44;5073720;28;20520;-60
2023/05/25 02:57:07;;;;;;;6.83;6.23;;;15.50;99.90;;;15.81;67.10;94979.44;5070691;28;20490;-61
2023/05/25 02:59:34;;;;;;;11.03;6.57;;;15.50;99.90;;;15.80;67.29;94970.66;5077341;28;20453;-56
2023/05/25 03:02:01;;;;;;;8.90;6.10;;;15.50;99.90;;;15.80;67.58;94969.81;5072320;28;20569;-61
2023/05/25 03:04:33;;;;;;;10.23;6.53;;;15.50;99.90;;;15.80;67.27;94972.47;5076149;28;20975;-60
2023/05/25 03:07:00;;;;;;;9.20;6.03;;;15.50;99.90;;;15.80;67.25;94975.13;5066387;28;20562;-56
2023/05/25 03:09:27;;;;;;;13.37;6.73;;;15.50;99.90;;;15.79;67.75;94976.97;5073329;28;20471;-61
2023/05/25 03:11:55;;;;;;;9.33;7.13;;;15.50;99.90;;;15.79;67.61;94973.50;5068454;28;20489;-62
2023/05/25 03:14:22;;;;;;;17.20;6.67;;;15.50;99.90;;;15.79;67.29;94973.50;5074088;28;21027;-59
2023/05/25 03:16:49;;;;;;;8.53;6.63;;;15.50;99.90;;;15.80;67.26;94980.44;5069296;28;20479;-55
2023/05/25 03:19:19;;;;;;;7.50;6.70;;;15.50;99.90;;;15.83;67.94;94977.44;5073427;28;20451;-60
2023/05/25 03:21:47;;;;;;;11.00;5.90;;;15.50;99.90;;;15.85;67.80;94983.41;5075190;28;20581;-55
2023/05/25 03:24:15;;;;;;;11.20;7.47;;;15.50;99.90;;;15.85;67.82;94978.09;5077029;28;20579;-55
2023/05/25 03:26:42;;;;;;;12.33;6.47;;;15.60;99.90;;;15.86;67.84;94982.41;5073466;28;20509;-54
2023/05/25 03:29:09;;;;;;;25.27;7.83;;;15.60;99.90;;;15.84;67.71;94977.28;5075108;28;20490;-60
2023/05/25 03:31:37;;;;;;;21.47;7.17;;;15.60;99.90;;;15.87;67.48;94987.53;5075263;28;20478;-60
2023/05/25 03:34:05;;;;;;;11.00;7.57;;;15.60;99.90;;;15.88;67.34;94989.22;5074758;28;20447;-60
2023/05/25 03:36:33;;;;;;;12.90;7.73;;;15.60;99.90;;;15.91;67.82;94995.97;5074195;28;20539;-61
2023/05/25 03:39:01;;;;;;;11.83;7.70;;;15.60;99.90;;;15.93;67.47;94992.16;5077186;28;20982;-60
2023/05/25 03:41:28;;;;;;;13.40;7.00;;;15.70;99.90;;;15.94;67.39;94991.19;5076533;28;20821;-56
2023/05/25 03:43:56;;;;;;;12.13;6.30;;;15.70;99.90;;;15.97;67.53;94995.31;5078355;28;20466;-57
2023/05/25 03:46:23;;;;;;;8.70;7.10;;;15.70;99.90;;;16.00;67.64;95002.09;5077164;28;20478;-61
2023/05/25 03:48:50;;;;;;;11.67;7.63;;;15.70;99.90;;;16.04;67.60;94998.13;5071835;28;20494;-61
2023/05/25 03:51:18;;;;;;;13.90;7.20;;;15.70;99.90;;;16.08;67.68;95000.25;5071959;28;20508;-60
2023/05/25 03:53:45;;;;;;;13.80;7.47;;;15.80;99.90;;;16.11;67.53;95002.56;5075111;28;21006;-61
2023/05/25 03:56:14;;;;;;;22.93;7.17;;;15.80;99.90;;;16.14;67.98;95006.69;5070144;28;20474;-60
2023/05/25 03:58:41;;;;;;;14.50;7.17;;;15.80;99.90;;;16.15;67.87;94999.59;5076001;28;20447;-62
2023/05/25 04:01:09;;;;;;;8.77;7.10;;;15.80;99.90;;;16.17;67.47;95008.19;5069048;28;20471;-57
2023/05/25 04:03:36;;;;;;;11.63;7.50;;;15.90;99.90;;;16.20;67.87;95002.53;5076929;28;20531;-56
2023/05/25 04:06:04;;;;;;;14.90;6.93;;;15.90;99.90;;;16.21;67.96;95002.38;5072129;28;20459;-55
2023/05/25 04:08:32;;;;;;;18.70;8.50;;;15.90;99.90;;;16.26;67.58;95010.63;5070137;28;20539;-55
2023/05/25 04:11:00;;;;;;;19.70;8.23;;;15.90;99.90;;;16.32;67.67;95019.75;5073486;28;20455;-56
2023/05/25 04:13:28;;;;;;;15.93;7.80;;;16.00;99.90;;;16.40;67.83;95022.38;5082703;28;21174;-59
2023/05/25 04:15:56;;;;;;;13.40;8.13;;;16.10;99.90;;;16.48;67.88;95016.19;5071424;28;20454;-61
2023/05/25 04:18:23;;;;;;;12.83;7.77;;;16.10;99.90;;;16.56;67.73;95016.19;5075548;28;20454;-61
2023/05/25 04:20:50;;;;;;;15.97;8.23;;;16.20;99.90;;;16.68;67.55;95021.91;5072119;28;20504;-60
2023/05/25 04:23:20;;;;;;;21.83;7.67;;;16.30;99.90;;;16.79;67.45;95028.66;5073463;28;20458;-58
2023/05/25 04:25:49;;;;;;;18.87;8.00;;;16.40;99.90;;;16.90;66.96;95027.47;5072848;28;20451;-56
2023/05/25 04:28:17;;;;;;;15.43;8.57;;;16.60;99.90;;;17.01;66.69;95029.75;5078000;28;20479;-61
2023/05/25 04:30:46;;;;;;;27.30;9.10;;;16.60;99.90;;;17.11;66.61;95038.31;5072489;28;20930;-58
2023/05/25 04:33:16;;;;;;;28.00;9.40;;;16.70;99.90;;;17.20;66.73;95037.25;5075550;28;20455;-55
2023/05/25 04:35:44;;;;;;;22.80;8.50;;;16.80;99.90;;;17.30;66.42;95042.31;5073869;28;20842;-56
2023/05/25 04:38:11;;;;;;;11.40;7.57;;;16.90;99.90;;;17.39;65.60;95045.75;5077420;28;20582;-57
2023/05/25 04:40:40;;;;;;;20.63;8.00;;;17.00;99.90;;;17.47;65.52;95048.34;5074116;28;20458;-60
2023/05/25 04:43:08;;;;;;;14.90;7.10;;;17.10;99.90;;;17.53;65.07;95042.31;5073188;28;20471;-56
2023/05/25 04:45:36;;;;;;;15.30;7.90;;;17.20;99.90;;;17.58;65.22;95049.75;5072911;28;20505;-62
2023/05/25 04:48:06;;;;;;;18.03;7.80;;;17.20;99.90;;;17.62;65.04;95044.94;5077487;28;20549;-60
2023/05/25 04:50:33;;;;;;;9.53;6.90;;;17.30;99.90;;;17.67;64.36;95046.03;5073962;28;20475;-60
2023/05/25 04:53:00;;;;;;;15.17;8.43;;;17.30;99.90;;;17.73;64.45;95044.50;5072703;28;20493;-55
2023/05/25 04:55:27;;;;;;;14.13;6.97;;;17.40;99.90;;;17.81;64.42;95036.44;5073640;28;20458;-61
2023/05/25 04:57:55;;;;;;;8.97;7.10;;;17.50;99.90;;;17.91;64.64;95031.72;5072550;28;20474;-56
2023/05/25 05:00:22;;;;;;;13.40;6.33;;;17.50;99.90;;;17.99;63.96;95032.66;5072980;28;20503;-57
2023/05/25 05:02:50;;;;;;;9.80;6.90;;;17.60;99.90;;;18.06;64.00;95025.56;5075147;28;20539;-56
2023/05/25 05:05:19;;;;;;;7.67;5.10;;;17.70;99.90;;;18.11;63.83;95025.88;5070858;28;20543;-61
2023/05/25 05:07:46;;;;;;;23.07;7.90;;;17.80;99.90;;;18.16;63.85;95034.13;5071295;28;21006;-55
2023/05/25 05:10:13;;;;;;;11.73;6.13;;;17.80;99.90;;;18.21;63.30;95034.41;5071106;28;21105;-58
2023/05/25 05:12:40;;;;;;;12.23;5.97;;;17.80;99.90;;;18.28;63.45;95027.34;5072895;28;20462;-61
2023/05/25 05:15:08;;;;;;;15.63;6.80;;;17.90;99.90;;;18.38;63.60;95023.56;5075798;28;20457;-58
2023/05/25 05:17:36;;;;;;;8.47;6.10;;;18.00;99.90;;;18.50;63.76;95037.22;5070984;28;20494;-55
2023/05/25 05:20:07;;;;;;;13.93;6.77;;;18.10;99.90;;;18.62;63.43;95031.28;5072240;28;20513;-61
2023/05/25 05:22:37;;;;;;;10.70;6.40;;;18.20;99.90;;;18.77;63.23;95031.22;5068375;28;21022;-55
2023/05/25 05:25:04;;;;;;;10.80;5.80;;;18.30;99.90;;;18.94;63.11;95034.53;5079098;28;21072;-61
2023/05/25 05:27:32;;;;;;;14.40;7.70;;;18.50;99.90;;;19.11;62.30;95034.31;5075109;28;20500;-54
2023/05/25 05:29:59;;;;;;;13.57;6.77;;;18.70;99.90;;;19.29;61.91;95042.72;5075585;28;20905;-61
2023/05/25 05:32:26;;;;;;;13.70;7.47;;;18.80;99.90;;;19.47;62.22;95047.63;5069812;28;20481;-62
2023/05/25 05:34:54;;;;;;;10.13;7.00;;;19.00;99.90;;;19.65;61.72;95049.81;5074935;28;20454;-55
2023/05/25 05:37:21;;;;;;;11.33;6.40;;;19.20;99.90;;;19.85;61.78;95043.88;5073181;28;20477;-57
2023/05/25 05:39:51;;;;;;;14.60;6.43;;;19.40;99.90;;;20.05;60.56;95042.16;5073541;28;20446;-61
2023/05/25 05:42:18;;;;;;;12.33;6.33;;;19.50;99.90;;;20.22;59.89;95053.38;5070812;28;20486;-61
2023/05/25 05:44:45;;;;;;;7.63;6.83;;;19.70;99.90;;;20.36;59.59;95048.94;5070837;28;20538;-57
2023/05/25 05:47:13;;;;;;;9.73;5.77;;;19.90;99.90;;;20.51;59.19;95048.00;5075918;28;20475;-57
2023/05/25 05:49:40;;;;;;;13.10;6.97;;;20.00;99.60;;;20.64;57.53;95047.25;5075052;28;20514;-56
2023/05/25 05:52:09;;;;;;;6.90;5.60;;;20.10;98.40;;;20.70;58.60;95041.97;5075899;28;20484;-57
2023/05/25 05:54:36;;;;;;;13.30;6.00;;;20.20;98.90;;;20.74;57.70;95053.94;5071945;28;20512;-55
2023/05/25 05:57:05;;;;;;;7.83;5.30;;;20.30;98.20;;;20.83;58.00;95048.41;5075323;28;20470;-56
2023/05/25 05:59:33;;;;;;;16.50;5.80;;;20.40;98.60;;;20.95;58.01;95049.47;5071753;28;20555;-61
2023/05/25 06:02:00;;;;;;;11.70;5.27;;;20.50;98.50;;;21.14;57.15;95055.91;5075204;28;20466;-61
2023/05/25 06:04:27;;;;;;;12.07;6.80;;;20.60;97.90;;;21.30;57.07;95054.72;5070284;28;20512;-57
2023/05/25 06:06:55;;;;;;;11.43;6.63;;;20.80;97.80;;;21.49;57.16;95047.81;5074644;28;20528;-56
2023/05/25 06:09:22;;;;;;;8.27;6.47;;;21.00;97.80;;;21.70;56.95;95046.78;5068722;28;20490;-62
2023/05/25 06:11:50;;;;;;;12.00;6.77;;;21.20;97.50;;;21.91;56.39;95047.66;5073119;28;20791;-62
2023/05/25 06:14:18;;;;;;;9.80;7.33;;;21.30;97.20;;;22.08;55.87;95045.38;5070841;28;20459;-57
2023/05/25 06:16:46;;;;;;;7.93;5.90;;;21.60;97.10;;;22.27;55.41;95049.88;5074402;28;20466;-63
2023/05/25 06:19:13;;;;;;;11.57;6.60;;;21.70;96.60;;;22.43;54.96;95058.53;5069767;28;20443;-56
2023/05/25 06:21:40;;;;;;;13.50;6.60;;;21.90;96.40;;;22.56;55.01;95053.97;5076341;28;20525;-57
2023/05/25 06:24:08;;;;;;;9.63;7.03;;;22.00;96.20;;;22.75;54.36;95056.81;5066049;28;20537;-63
2023/05/25 06:26:36;;;;;;;10.13;7.00;;;22.20;96.20;;;22.99;54.30;95054.44;5072294;28;20478;-62
2023/05/25 06:29:03;;;;;;;15.27;6.67;;;22.40;95.90;;;23.19;53.68;95052.56;5068762;28;20482;-62
2023/05/25 06:31:32;;;;;;;8.00;6.70;;;22.60;95.30;;;23.31;54.06;95058.03;5069629;28;21061;-62
2023/05/25 06:33:59;;;;;;;13.30;6.27;;;22.70;95.20;;;23.43;53.45;95052.81;5065915;28;20481;-55
2023/05/25 06:36:26;;;;;;;10.20;7.03;;;22.90;94.90;;;23.56;53.64;95054.59;5070365;28;20465;-62
2023/05/25 06:38:54;;;;;;;11.20;6.97;;;23.00;94.70;;;23.71;53.48;95062.38;5069461;28;20466;-56
2023/05/25 06:41:21;;;;;;;9.63;6.83;;;23.20;94.60;;;23.85;52.87;95065.81;5068441;28;20570;-55
2023/05/25 06:43:48;;;;;;;12.77;7.77;;;23.30;94.30;;;23.99;52.63;95070.03;5069328;28;20457;-57
2023/05/25 06:46:16;;;;;;;11.50;6.57;;;23.40;94.20;;;24.19;52.24;95061.81;5074929;28;20475;-57
2023/05/25 06:48:45;;;;;;;44.63;13.40;;;23.60;94.10;;;24.39;52.63;95064.31;5070501;28;20486;-62
2023/05/25 06:51:12;;;;;;;18.87;8.10;;;23.80;93.70;;;24.61;52.60;95063.94;5071411;28;20566;-62
2023/05/25 06:53:40;;;;;;;7.10;5.90;;;24.00;93.60;;;24.83;51.63;95056.22;5068962;28;20458;-57
2023/05/25 06:56:07;;;;;;;9.23;5.03;;;24.30;93.50;;;25.08;51.61;95068.78;5069295;28;20451;-62
2023/05/25 06:58:34;;;;;;;12.67;6.53;;;24.50;93.20;;;25.24;51.16;95065.47;5072454;28;20461;-63
2023/05/25 07:01:02;;;;;;;25.67;7.53;;;24.60;92.90;;;25.37;51.15;95073.41;5069639;28;20508;-63
2023/05/25 07:03:29;;;;;;;11.83;6.27;;;24.80;92.70;;;25.57;51.20;95072.31;5065198;28;20462;-55
2023/05/25 07:05:58;;;;;;;7.60;6.20;;;24.90;92.40;;;25.80;50.45;95060.78;5070420;28;20493;-62
2023/05/25 07:08:25;;;;;;;10.37;4.87;;;25.20;91.90;;;26.02;50.31;95063.78;5068151;28;20473;-62
2023/05/25 07:10:53;;;;;;;8.03;5.23;;;25.40;91.60;;;26.22;49.87;95058.06;5072060;28;20458;-54
2023/05/25 07:13:20;;;;;;;8.40;5.20;;;25.60;91.10;;;26.45;49.51;95062.66;5072393;28;20508;-55
2023/05/25 07:15:47;;;;;;;7.67;5.73;;;25.80;90.90;;;26.65;48.22;95056.94;5071452;28;20458;-55
2023/05/25 07:18:15;;;;;;;8.77;4.80;;;26.00;90.00;;;26.83;48.56;95058.69;5074665;28;20930;-57
2023/05/25 07:20:42;;;;;;;11.03;4.73;;;26.20;89.70;;;26.90;48.46;95058.53;5071979;28;20485;-55
2023/05/25 07:23:11;;;;;;;15.20;5.60;;;26.30;88.50;;;26.89;47.58;95061.47;5066886;28;20532;-56
2023/05/25 07:25:38;;;;;;;11.13;5.90;;;26.30;86.10;;;26.75;48.05;95067.13;5069223;28;20500;-56
2023/05/25 07:28:06;;;;;;;8.00;4.30;;;26.20;86.90;;;26.68;48.25;95066.44;5075586;28;20469;-55
2023/05/25 07:30:33;;;;;;;6.53;4.80;;;26.10;86.80;;;26.63;48.11;95066.28;5071932;28;20490;-61
2023/05/25 07:33:00;;;;;;;6.17;4.47;;;26.10;86.00;;;26.61;48.15;95063.00;5071169;28;20480;-57
2023/05/25 07:35:28;;;;;;;5.90;3.80;;;26.10;86.00;;;26.67;48.27;95070.19;5072219;28;20947;-60
2023/05/25 07:37:58;;;;;;;4.90;4.40;;;26.10;85.70;;;26.74;47.70;95070.91;5078497;28;20467;-58
2023/05/25 07:40:27;;;;;;;4.03;3.53;;;26.20;85.20;;;26.77;47.34;95075.81;5066460;28;20942;-56
2023/05/25 07:42:54;;;;;;;3.50;3.20;;;26.20;83.90;;;26.83;46.82;95071.34;5072378;28;20462;-55
2023/05/25 07:45:22;;;;;;;5.00;3.60;;;26.20;82.20;;;26.85;46.50;95066.53;5071559;28;20446;-56
2023/05/25 07:47:49;;;;;;;5.37;3.10;;;26.30;81.60;;;26.84;46.27;95068.41;5074234;28;20496;-54
2023/05/25 07:50:16;;;;;;;4.10;3.27;;;26.30;80.90;;;26.77;46.20;95067.72;5071395;28;20490;-61
2023/05/25 07:52:43;;;;;;;6.80;3.50;;;26.30;80.20;;;26.67;45.53;95067.50;5073941;28;20476;-55
2023/05/25 07:55:11;;;;;;;4.17;3.33;;;26.20;79.50;;;26.50;46.11;95061.16;5072124;28;20450;-57
2023/05/25 07:57:39;;;;;;;3.80;3.47;;;26.00;79.30;;;26.32;46.16;95062.91;5070095;28;21029;-55
2023/05/25 08:00:09;;;;;;;7.93;3.77;;;25.90;79.30;;;26.12;46.37;95069.44;5071070;28;21098;-62
2023/05/25 08:02:37;;;;;;;4.80;4.40;;;25.70;79.30;;;25.94;46.94;95072.19;5071610;28;20481;-60
2023/05/25 08:05:05;;;;;;;4.53;3.20;;;25.50;79.80;;;25.74;46.78;95089.47;5076096;28;20454;-63
2023/05/25 08:07:33;;;;;;;3.03;2.53;;;25.30;79.10;;;25.55;46.99;95083.31;5073951;28;20566;-61
2023/05/25 08:10:00;;;;;;;5.30;3.50;;;25.10;79.50;;;25.33;47.78;95104.53;5073159;28;20490;-55
2023/05/25 08:12:28;;;;;;;7.50;3.63;;;25.00;81.10;;;25.06;47.41;95101.31;5077244;28;20502;-56
2023/05/25 08:14:56;;;;;;;4.00;3.10;;;24.70;79.90;;;24.64;48.28;95101.94;5074986;28;20451;-55
2023/05/25 08:17:24;;;;;;;6.87;3.43;;;24.40;80.30;;;24.24;48.18;95117.59;5077948;28;20525;-55
2023/05/25 08:19:51;;;;;;;14.20;3.20;;;23.90;79.60;;;23.80;49.03;95115.59;5077296;28;20448;-61
2023/05/25 08:22:18;;;;;;;4.00;2.90;;;23.60;81.20;;;23.45;49.54;95126.75;5076853;28;20919;-57
2023/05/25 08:24:46;;;;;;;6.87;3.57;;;23.20;81.70;;;23.11;49.89;95127.09;5076296;28;20940;-60
2023/05/25 08:27:13;;;;;;;3.43;3.07;;;22.80;82.50;;;22.75;50.72;95126.53;5072982;28;20466;-57
2023/05/25 08:29:40;;;;;;;5.33;3.03;;;22.40;83.20;;;22.43;51.46;95126.34;5076557;28;21050;-61
2023/05/25 08:32:09;;;;;;;7.13;3.90;;;22.10;84.70;;;22.17;52.04;95137.91;5073010;28;20474;-55
2023/05/25 08:34:36;;;;;;;10.03;3.73;;;21.80;86.90;;;21.90;53.54;95131.69;5074746;28;20449;-55
2023/05/25 08:37:04;;;;;;;7.50;4.37;;;21.60;88.80;;;21.58;54.90;95131.41;5075622;28;20463;-56
2023/05/25 08:39:31;;;;;;;17.37;4.37;;;21.30;90.60;;;21.31;54.69;95123.25;5076702;28;20890;-61
2023/05/25 08:41:59;;;;;;;14.53;4.10;;;21.00;90.80;;;21.12;54.61;95128.34;5070352;28;20529;-59
2023/05/25 08:44:28;;;;;;;16.63;4.10;;;20.80;90.90;;;20.94;55.16;95128.03;5077670;28;20453;-58
2023/05/25 08:46:55;;;;;;;5.73;3.80;;;20.60;91.30;;;20.77;56.30;95131.06;5073391;28;20466;-61
2023/05/25 08:49:24;;;;;;;6.07;3.10;;;20.40;92.20;;;20.68;55.92;95134.06;5075133;28;21064;-60
2023/05/25 08:51:52;;;;;;;10.63;3.03;;;20.30;92.10;;;20.60;56.65;95137.69;5075892;28;20554;-59
2023/05/25 08:54:22;;;;;;;6.17;3.97;;;20.20;92.80;;;20.50;56.17;95138.03;5076685;28;20509;-55
2023/05/25 08:56:51;;;;;;;5.60;3.50;;;20.10;92.60;;;20.36;56.55;95145.13;5073916;28;20515;-55
2023/05/25 08:59:36;;;;;;;5.03;3.90;;;20.00;92.90;;;20.22;57.85;95148.72;5076728;28;20950;-58
2023/05/25 09:02:14;;;;;;;4.57;4.17;;;19.90;93.80;;;20.11;57.43;95147.41;5077051;28;20531;-60
2023/05/25 09:04:43;;;;;;;3.47;3.17;;;19.80;93.80;;;20.02;57.42;95153.88;5070524;28;21018;-60
2023/05/25 09:07:10;;;;;;;5.20;2.87;;;19.70;93.70;;;19.88;57.66;95160.94;5077614;28;20857;-57
2023/05/25 09:09:38;;;;;;;2.87;2.57;;;19.60;94.30;;;19.78;58.41;95163.09;5072613;28;20580;-60
2023/05/25 09:12:06;;;;;;;4.60;3.33;;;19.40;94.80;;;19.66;58.47;95160.91;5075707;28;20493;-54
2023/05/25 09:14:34;;;;;;;9.07;3.03;;;19.30;95.10;;;19.59;59.40;95159.16;5073930;28;20463;-56
2023/05/25 09:17:01;;;;;;;4.37;3.60;;;19.20;96.20;;;19.52;59.84;95159.91;5075977;28;20476;-62
2023/05/25 09:19:28;;;;;;;5.47;3.63;;;19.20;96.20;;;19.47;60.68;95162.34;5074150;28;20511;-61
2023/05/25 09:21:57;;;;;;;12.17;4.40;;;19.10;97.50;;;19.38;60.53;95160.78;5073200;28;20492;-60
2023/05/25 09:24:24;;;;;;;9.50;5.17;;;19.00;97.70;;;19.32;61.38;95165.03;5072840;28;20481;-60
2023/05/25 09:26:52;;;;;;;5.73;4.50;;;19.00;98.40;;;19.30;62.79;95153.72;5067457;28;20556;-61
2023/05/25 09:29:19;;;;;;;6.80;5.00;;;19.00;99.60;;;19.29;62.16;95162.72;5074401;28;20513;-54
2023/05/25 09:31:46;;;;;;;5.37;4.20;;;18.90;99.60;;;19.23;63.39;95158.16;5069905;28;20474;-56
2023/05/25 09:34:14;;;;;;;8.33;4.17;;;18.90;99.90;;;19.22;63.63;95164.47;5070401;28;20447;-61
2023/05/25 09:36:41;;;;;;;6.20;5.00;;;18.90;99.90;;;19.21;63.26;95157.50;5074852;28;20487;-61
2023/05/25 09:39:10;;;;;;;17.40;4.57;;;18.90;99.90;;;19.22;63.93;95166.31;5068271;28;20454;-61
2023/05/25 09:41:37;;;;;;;10.00;6.83;;;18.90;99.90;;;19.23;64.12;95163.47;5071623;28;20478;-60
2023/05/25 09:44:05;;;;;;;9.83;7.00;;;18.90;99.90;;;19.19;63.96;95151.53;5076713;28;20926;-61
2023/05/25 09:46:35;;;;;;;8.57;6.70;;;18.90;99.90;;;19.16;64.60;95163.41;5072434;28;20557;-61
2023/05/25 09:49:03;;;;;;;9.93;6.50;;;18.80;99.90;;;19.20;64.69;95155.03;5072209;28;20475;-57
2023/05/25 09:51:31;;;;;;;11.50;5.67;;;18.80;99.90;;;19.27;64.62;95145.25;5073107;28;20562;-54
2023/05/25 09:54:00;;;;;;;11.53;6.43;;;18.90;99.90;;;19.38;64.68;95150.13;5076497;28;20771;-56
2023/05/25 09:56:30;;;;;;;10.00;5.13;;;19.00;99.90;;;19.47;64.13;95146.34;5068008;28;20475;-55
2023/05/25 09:58:58;;;;;;;6.40;5.10;;;19.10;99.90;;;19.54;63.62;95143.72;5073851;28;20439;-60
2023/05/25 10:01:26;;;;;;;7.47;4.77;;;19.10;99.90;;;19.61;63.90;95136.63;5072463;28;20972;-57
2023/05/25 10:03:55;;;;;;;5.33;4.50;;;19.20;99.90;;;19.73;63.92;95133.44;5073178;28;20446;-55
2023/05/25 10:06:22;;;;;;;5.80;4.80;;;19.30;99.90;;;19.88;64.85;95132.41;5073415;28;20466;-62
2023/05/25 10:08:49;;;;;;;6.13;5.00;;;19.50;99.90;;;20.05;64.51;95140.97;5078084;28;20900;-55
2023/05/25 10:11:17;;;;;;;7.17;5.70;;;19.60;99.90;;;20.22;64.20;95138.03;5072785;28;20588;-60
2023/05/25 10:13:46;;;;;;;11.07;7.57;;;19.80;99.90;;;20.35;64.16;95131.97;5071738;28;20569;-57
2023/05/25 10:16:16;;;;;;;54.87;27.03;;;19.90;99.90;;;20.49;63.71;95124.88;5074736;28;20476;-62
2023/05/25 10:18:48;;;;;;;38.97;22.53;;;20.10;99.90;;;20.63;63.70;95117.75;5073674;28;20537;-54
2023/05/25 10:21:16;;;;;;;30.50;15.47;;;20.20;99.90;;;20.76;63.88;95116.03;5070020;28;20553;-57
2023/05/25 10:23:46;;;;;;;12.67;8.17;;;20.40;99.90;;;20.88;63.34;95113.63;5072356;28;20461;-57
2023/05/25 10:26:18;;;;;;;21.70;11.50;;;20.50;99.90;;;20.99;62.82;95112.25;5071045;28;20474;-61
2023/05/25 10:28:49;;;;;;;14.93;7.87;;;20.60;99.90;;;21.11;62.80;95104.47;5069029;28;20939;-56